Nave Titan — 3FKP — position and weather

sailwx.info

Track history (hours):
 
Tides and Currents Weather Stations Pressure Air Temp Water Temp Dewpoint Dewpoint Depression Visibility Wind Speed Wind Dir Waves Ship Positions

Nave Titan

Last reported at 2018-Jul-24 13:48 UTC. Time now 2018-Aug-17 11:41 UTC.
Position N 09°16' W 079°55'.
Warning: this ship's position is 23 days out of date.

Length 183 m; draft 10.6 m.

Type: Ship. MMSI: 353962000.

Date/timePositionNaut miles runAvg speedWind from/ knotsBaromVisibWave heightAir tempDewpointWater temp
2018-Jul-24 13:48N 09°16' W 079°55'0 0.3
2018-Jul-24 13:30N 09°16' W 079°55'0 0.5
2018-Jul-24 13:00N 09°17' W 079°55'0 0.5
2018-Jul-24 12:30N 09°17' W 079°55'0 0.7
2018-Jul-24 12:00N 09°17' W 079°55'2 3.2
2018-Jul-24 11:30N 09°19' W 079°55'3 5.3
2018-Jul-24 11:00N 09°21' W 079°55'3 6.1
2018-Jul-24 10:30N 09°24' W 079°55'1 1.5
2018-Jul-24 09:59N 09°25' W 079°56'0 0.9
2018-Jul-24 09:30N 09°24' W 079°56'0 0.1
2018-Jul-24 09:00N 09°24' W 079°56'0 0.0
2018-Jul-24 08:30N 09°24' W 079°56'0 0.0
2018-Jul-24 08:00N 09°24' W 079°56'0 0.0
2018-Jul-24 07:27N 09°24' W 079°56'0 0.0
2018-Jul-24 07:00N 09°24' W 079°56'0 0.0
2018-Jul-24 06:30N 09°24' W 079°56'0 0.0
2018-Jul-24 06:00N 09°24' W 079°56'0 0.0
2018-Jul-24 05:30N 09°24' W 079°56'0 0.0
2018-Jul-24 05:00N 09°24' W 079°56'0 0.0
2018-Jul-24 04:30N 09°24' W 079°56'0 0.0
2018-Jul-24 04:00N 09°24' W 079°56'0 0.0
2018-Jul-24 03:30N 09°24' W 079°56'0 0.0
2018-Jul-24 03:00N 09°24' W 079°56'0 0.0
2018-Jul-24 02:30N 09°24' W 079°56'0 0.0
2018-Jul-24 02:00N 09°24' W 079°56'0 0.1
2018-Jul-24 01:30N 09°24' W 079°56'0 0.0
2018-Jul-24 01:00N 09°24' W 079°56'0 0.0
2018-Jul-24 00:30N 09°24' W 079°56'0 0.0
2018-Jul-24 00:00N 09°24' W 079°56'0 0.0
2018-Jul-23 23:30N 09°24' W 079°56'0 0.0
2018-Jul-23 23:00N 09°24' W 079°56'0 0.0
2018-Jul-23 22:30N 09°24' W 079°56'0 0.0
2018-Jul-23 22:00N 09°24' W 079°56'0 0.8
2018-Jul-23 21:30N 09°24' W 079°56'2 4.8
2018-Jul-23 21:01N 09°27' W 079°57'4 7.6
2018-Jul-23 20:30N 09°30' W 079°56'  
Track history (hours):
 
Tides and Currents Weather Stations Pressure Air Temp Water Temp Dewpoint Dewpoint Depression Visibility Wind Speed Wind Dir Waves Ship Positions

Nave Titan

Last reported at 2018-Jul-24 13:48 UTC. Time now 2018-Aug-17 11:41 UTC.
Position N 09°16' W 079°55'.
Warning: this ship's position is 23 days out of date.

Length 183 m; draft 10.6 m.

Type: Ship. MMSI: 353962000.

Date/timePositionNaut miles runAvg speedWind from/ knotsBaromVisibWave heightAir tempDewpointWater temp
2018-Jul-24 13:48N 09°16' W 079°55'0 0.3
2018-Jul-24 13:30N 09°16' W 079°55'0 0.5
2018-Jul-24 13:00N 09°17' W 079°55'0 0.5
2018-Jul-24 12:30N 09°17' W 079°55'0 0.7
2018-Jul-24 12:00N 09°17' W 079°55'2 3.2
2018-Jul-24 11:30N 09°19' W 079°55'3 5.3
2018-Jul-24 11:00N 09°21' W 079°55'3 6.1
2018-Jul-24 10:30N 09°24' W 079°55'1 1.5
2018-Jul-24 09:59N 09°25' W 079°56'0 0.9
2018-Jul-24 09:30N 09°24' W 079°56'0 0.1
2018-Jul-24 09:00N 09°24' W 079°56'0 0.0
2018-Jul-24 08:30N 09°24' W 079°56'0 0.0
2018-Jul-24 08:00N 09°24' W 079°56'0 0.0
2018-Jul-24 07:27N 09°24' W 079°56'0 0.0
2018-Jul-24 07:00N 09°24' W 079°56'0 0.0
2018-Jul-24 06:30N 09°24' W 079°56'0 0.0
2018-Jul-24 06:00N 09°24' W 079°56'0 0.0
2018-Jul-24 05:30N 09°24' W 079°56'0 0.0
2018-Jul-24 05:00N 09°24' W 079°56'0 0.0
2018-Jul-24 04:30N 09°24' W 079°56'0 0.0
2018-Jul-24 04:00N 09°24' W 079°56'0 0.0
2018-Jul-24 03:30N 09°24' W 079°56'0 0.0
2018-Jul-24 03:00N 09°24' W 079°56'0 0.0
2018-Jul-24 02:30N 09°24' W 079°56'0 0.0
2018-Jul-24 02:00N 09°24' W 079°56'0 0.1
2018-Jul-24 01:30N 09°24' W 079°56'0 0.0
2018-Jul-24 01:00N 09°24' W 079°56'0 0.0
2018-Jul-24 00:30N 09°24' W 079°56'0 0.0
2018-Jul-24 00:00N 09°24' W 079°56'0 0.0
2018-Jul-23 23:30N 09°24' W 079°56'0 0.0
2018-Jul-23 23:00N 09°24' W 079°56'0 0.0
2018-Jul-23 22:30N 09°24' W 079°56'0 0.0
2018-Jul-23 22:00N 09°24' W 079°56'0 0.8
2018-Jul-23 21:30N 09°24' W 079°56'2 4.8
2018-Jul-23 21:01N 09°27' W 079°57'4 7.6
2018-Jul-23 20:30N 09°30' W 079°56'  

Dump ship's entire track history